Dizney, Kentucky
Current Conditions -  °F | °C
As of 4:15 PM on Sunday 23 Nov 2014 (Local Time) from KI35 Reporting Station
Broken Clouds Broken Clouds  
Wind Chill: 55°   Ceiling: 12000
Heat Index: 55°   Visibility: 10mi
Dew Point: 46°   Wind: 15mph
Humidity: 72%   Direction: 110°ESE
Pressure: 29.72"   Gusts: 33mph
Location:  36.8509°N, 83.1611°W
Report Text: KI35 232115Z AUTO 11013G29KT 060V160 10SM SCT085 BKN120 13/08 A2972 RMK AO1
Loading
Personal Weather Stations






























Interactive Weather Map New forecast layout! Learn more

10-Day Weather Forecast

Advertisements
Track Severe Weather on mobile